createdAt,value
2023-04-01T00:00:16.200Z,7.6990
2023-04-01T00:01:17.260Z,7.7032
2023-04-01T00:02:18.364Z,7.6829
2023-04-01T00:03:19.478Z,7.6744
2023-04-01T00:04:20.571Z,7.6884
2023-04-01T00:05:21.583Z,7.6705
2023-04-01T00:06:22.737Z,7.6890
2023-04-01T00:07:23.743Z,7.6807
2023-04-01T00:08:24.776Z,7.6840
2023-04-01T00:09:25.737Z,7.6914
2023-04-01T00:10:26.412Z,7.6916
2023-04-01T00:11:27.480Z,7.6915
2023-04-01T00:12:28.605Z,7.6962
2023-04-01T00:13:29.651Z,7.6719
2023-04-01T00:14:30.750Z,7.6743
2023-04-01T00:15:31.891Z,7.6530
2023-04-01T00:16:33.068Z,7.6551
2023-04-01T00:17:34.196Z,7.6629
2023-04-01T00:18:35.327Z,7.6582
2023-04-01T00:19:36.410Z,7.6640
2023-04-01T00:20:37.513Z,7.6752
2023-04-01T00:21:38.594Z,7.6719
2023-04-01T00:22:39.742Z,7.6760
2023-04-01T00:23:40.841Z,7.7055
2023-04-01T00:24:41.946Z,7.7001
2023-04-01T00:25:43.011Z,7.6901
2023-04-01T00:26:44.147Z,7.6861
2023-04-01T00:27:45.193Z,7.6725
2023-04-01T00:28:46.322Z,7.6780
2023-04-01T00:29:47.428Z,7.6776
2023-04-01T00:30:48.574Z,7.6864
2023-04-01T00:31:49.736Z,7.6994
2023-04-01T00:32:50.865Z,7.6815
2023-04-01T00:33:52.073Z,7.6855
2023-04-01T00:34:53.125Z,7.6534
2023-04-01T00:35:54.242Z,7.6367
2023-04-01T00:36:55.356Z,7.6446
2023-04-01T00:37:56.463Z,7.6448
2023-04-01T00:38:57.533Z,7.6454
2023-04-01T00:39:58.644Z,7.6654
2023-04-01T00:40:59.759Z,7.6744
2023-04-01T00:42:00.810Z,7.6759
2023-04-01T00:43:01.940Z,7.6889
2023-04-01T00:44:03.328Z,7.6857
2023-04-01T00:45:04.436Z,7.7067
2023-04-01T00:46:05.588Z,7.7167
2023-04-01T00:47:06.675Z,7.7428
2023-04-01T00:48:07.842Z,7.7334
2023-04-01T00:49:08.995Z,7.7272
2023-04-01T00:50:10.036Z,7.7264
2023-04-01T00:51:11.111Z,7.7264
2023-04-01T00:52:12.176Z,7.7062
2023-04-01T00:53:13.290Z,7.6767
2023-04-01T00:54:14.368Z,7.6852
2023-04-01T00:55:15.441Z,7.6941
2023-04-01T00:56:16.562Z,7.6862
2023-04-01T00:57:17.648Z,7.6831
2023-04-01T00:58:18.787Z,7.6644
2023-04-01T00:59:19.880Z,7.6550
2023-04-01T01:00:20.977Z,7.6555
2023-04-01T01:01:22.131Z,7.6423
2023-04-01T01:02:23.238Z,7.6327
2023-04-01T01:03:24.417Z,7.6170
2023-04-01T01:04:25.486Z,7.5998
2023-04-01T01:05:26.574Z,7.5692
2023-04-01T01:06:27.633Z,7.5495
2023-04-01T01:07:28.700Z,7.5633
2023-04-01T01:08:29.815Z,7.5558
2023-04-01T01:09:30.978Z,7.5152
2023-04-01T01:10:32.086Z,7.5079
2023-04-01T01:11:36.968Z,7.4519
2023-04-01T01:12:35.269Z,7.4225
2023-04-01T01:13:36.345Z,7.3965
2023-04-01T01:14:37.394Z,7.3816
2023-04-01T01:15:38.473Z,7.3599
2023-04-01T01:16:39.633Z,7.3431
2023-04-01T01:17:40.773Z,7.3035
2023-04-01T01:18:41.857Z,7.2994
2023-04-01T01:19:42.935Z,7.3052
2023-04-01T01:20:44.016Z,7.2920
2023-04-01T01:21:45.080Z,7.2848
2023-04-01T01:22:46.174Z,7.2908
2023-04-01T01:23:47.258Z,7.2307
2023-04-01T01:24:48.307Z,7.2011
2023-04-01T01:25:49.362Z,7.2034
2023-04-01T01:26:50.432Z,7.2152
2023-04-01T01:27:51.570Z,7.1771
2023-04-01T01:28:52.621Z,7.1951
2023-04-01T01:29:53.713Z,7.1969
2023-04-01T01:30:55.137Z,7.1899
2023-04-01T01:31:56.249Z,7.1783
2023-04-01T01:32:57.367Z,7.2188
2023-04-01T01:33:58.442Z,7.2206
2023-04-01T01:34:59.541Z,7.2043
2023-04-01T01:36:00.627Z,7.2024
2023-04-01T01:37:01.674Z,7.2777
2023-04-01T01:38:02.758Z,7.3144
2023-04-01T01:39:03.874Z,7.3005
2023-04-01T01:40:04.923Z,7.3732
2023-04-01T01:41:06.038Z,7.3382
2023-04-01T01:42:07.144Z,7.2949
2023-04-01T01:43:08.221Z,7.2769
2023-04-01T01:44:09.317Z,7.2982
2023-04-01T01:45:10.398Z,7.3167
2023-04-01T01:46:11.499Z,7.3120
2023-04-01T01:47:12.695Z,7.2976
2023-04-01T01:48:13.794Z,7.2988
2023-04-01T01:49:14.862Z,7.3367
2023-04-01T01:50:16.002Z,7.3498
2023-04-01T01:51:17.057Z,7.3454
2023-04-01T01:52:18.210Z,7.3407
2023-04-01T01:53:19.253Z,7.3609
2023-04-01T01:54:20.348Z,7.3843
2023-04-01T01:55:21.468Z,7.3829
2023-04-01T01:56:22.531Z,7.3655
2023-04-01T01:57:23.651Z,7.3407
2023-04-01T01:58:24.783Z,7.3403
2023-04-01T01:59:25.858Z,7.3860
2023-04-01T02:00:26.941Z,7.4002
2023-04-01T02:01:28.060Z,7.4199
2023-04-01T02:02:29.144Z,7.4018
2023-04-01T02:03:30.227Z,7.4163
2023-04-01T02:04:31.352Z,7.4009
2023-04-01T02:05:32.673Z,7.4171
2023-04-01T02:06:34.053Z,7.4056
2023-04-01T02:07:35.124Z,7.4051
2023-04-01T02:08:36.157Z,7.4109
2023-04-01T02:09:37.202Z,7.4031
2023-04-01T02:10:38.339Z,7.4023
2023-04-01T02:11:39.437Z,7.3989
2023-04-01T02:12:40.527Z,7.3956
2023-04-01T02:13:41.630Z,7.3954
2023-04-01T02:14:42.747Z,7.4290
2023-04-01T02:15:43.863Z,7.4178
2023-04-01T02:16:44.923Z,7.3875
2023-04-01T02:17:46.053Z,7.4048
2023-04-01T02:18:47.102Z,7.3951
2023-04-01T02:19:48.187Z,7.3743
2023-04-01T02:20:49.252Z,7.3921
2023-04-01T02:21:50.301Z,7.3931
2023-04-01T02:22:51.388Z,7.3913
2023-04-01T02:23:52.532Z,7.3855
2023-04-01T02:24:53.593Z,7.3709
2023-04-01T02:25:54.889Z,7.3613
2023-04-01T02:26:55.945Z,7.3336
2023-04-01T02:27:57.186Z,7.3570
2023-04-01T02:28:58.241Z,7.3801
2023-04-01T02:29:59.315Z,7.3427
2023-04-01T02:31:00.399Z,7.3232
2023-04-01T02:32:01.490Z,7.3684
2023-04-01T02:33:02.607Z,7.3739
2023-04-01T02:34:03.725Z,7.3838
2023-04-01T02:35:04.827Z,7.4986
2023-04-01T02:36:05.837Z,7.4927
2023-04-01T02:37:06.895Z,7.4603
2023-04-01T02:38:08.003Z,7.4575
2023-04-01T02:39:09.079Z,7.4805
2023-04-01T02:40:10.293Z,7.4412
2023-04-01T02:41:11.342Z,7.4256
2023-04-01T02:42:12.434Z,7.4179
2023-04-01T02:43:13.555Z,7.4327
2023-04-01T02:44:14.584Z,7.4158
2023-04-01T02:45:15.706Z,7.3898
2023-04-01T02:46:16.762Z,7.3669
2023-04-01T02:47:17.835Z,7.3482
2023-04-01T02:48:18.908Z,7.3088
2023-04-01T02:49:20.058Z,7.2596
2023-04-01T02:50:21.141Z,7.1859
2023-04-01T02:51:22.236Z,7.1430
2023-04-01T02:52:23.445Z,7.1416
2023-04-01T02:53:24.554Z,7.1056
2023-04-01T02:54:25.670Z,7.1035
2023-04-01T02:55:26.763Z,7.1251
2023-04-01T02:56:27.994Z,7.1977
2023-04-01T02:57:29.170Z,7.1882
2023-04-01T02:58:30.355Z,7.1456
2023-04-01T02:59:31.454Z,7.1245
2023-04-01T03:00:32.520Z,7.1085
2023-04-01T03:01:33.760Z,7.0844
2023-04-01T03:02:35.015Z,7.1010
2023-04-01T03:03:36.177Z,7.1183
2023-04-01T03:04:37.267Z,7.1322
2023-04-01T03:05:38.338Z,7.1545
2023-04-01T03:06:39.420Z,7.1904
2023-04-01T03:07:40.496Z,7.1703
2023-04-01T03:08:41.976Z,7.2001
2023-04-01T03:09:43.085Z,7.2411
2023-04-01T03:10:44.186Z,7.2733
2023-04-01T03:11:45.254Z,7.3033
2023-04-01T03:12:46.308Z,7.3062
2023-04-01T03:13:47.623Z,7.2917
2023-04-01T03:14:48.738Z,7.2737
2023-04-01T03:15:49.837Z,7.2196
2023-04-01T03:16:51.007Z,7.2197
2023-04-01T03:17:52.203Z,7.2032
2023-04-01T03:18:53.361Z,7.1543
2023-04-01T03:19:54.631Z,7.1271
2023-04-01T03:20:55.697Z,7.1264
2023-04-01T03:21:56.810Z,7.1490
2023-04-01T03:22:57.900Z,7.2018
2023-04-01T03:23:59.012Z,7.1985
2023-04-01T03:25:00.093Z,7.1652
2023-04-01T03:26:01.220Z,7.1337
2023-04-01T03:27:02.380Z,7.1119
2023-04-01T03:28:03.416Z,7.1794
2023-04-01T03:29:04.557Z,7.2280
2023-04-01T03:30:05.775Z,7.1942
2023-04-01T03:31:07.024Z,7.1549
2023-04-01T03:32:08.074Z,7.1304
2023-04-01T03:33:09.191Z,7.1670
2023-04-01T03:34:10.372Z,7.1459
2023-04-01T03:35:11.436Z,7.1102
2023-04-01T03:36:12.678Z,7.0935
2023-04-01T03:37:13.749Z,7.0677
2023-04-01T03:38:14.806Z,7.0012
2023-04-01T03:39:15.851Z,7.0327
2023-04-01T03:40:16.927Z,7.0467
2023-04-01T03:41:18.074Z,7.0301
2023-04-01T03:42:19.283Z,7.0146
2023-04-01T03:43:20.475Z,6.9974
2023-04-01T03:44:21.566Z,6.9931
2023-04-01T03:45:22.645Z,7.0271
2023-04-01T03:46:23.854Z,7.0738
2023-04-01T03:47:25.033Z,7.0731
2023-04-01T03:48:26.047Z,7.0960
2023-04-01T03:49:27.166Z,7.1583
2023-04-01T03:50:29.548Z,7.1740
2023-04-01T03:51:29.659Z,7.1606
2023-04-01T03:52:30.759Z,7.1838
2023-04-01T03:53:31.854Z,7.1918
2023-04-01T03:54:32.943Z,7.1925
2023-04-01T03:55:34.278Z,7.2910
2023-04-01T03:56:35.762Z,7.3210
2023-04-01T03:57:36.916Z,7.2879
2023-04-01T03:58:37.982Z,7.2631
2023-04-01T03:59:39.087Z,7.2721
2023-04-01T04:00:40.125Z,7.2926
2023-04-01T04:01:41.221Z,7.3075
2023-04-01T04:02:42.372Z,7.3167
2023-04-01T04:03:43.713Z,7.3082
2023-04-01T04:04:44.869Z,7.3104
2023-04-01T04:05:46.471Z,7.2822
2023-04-01T04:06:47.525Z,7.2293
2023-04-01T04:07:48.586Z,7.1972
2023-04-01T04:08:49.702Z,7.1771
2023-04-01T04:09:50.832Z,7.2282
2023-04-01T04:10:51.993Z,7.2406
2023-04-01T04:11:53.134Z,7.2519
2023-04-01T04:12:54.232Z,7.2521
2023-04-01T04:13:57.219Z,7.2504
2023-04-01T04:14:56.655Z,7.2453
2023-04-01T04:15:57.867Z,7.2393
2023-04-01T04:16:59.034Z,7.2688
2023-04-01T04:18:00.246Z,7.2575
2023-04-01T04:19:01.472Z,7.2605
2023-04-01T04:20:02.639Z,7.3073
2023-04-01T04:21:03.767Z,7.3364
2023-04-01T04:22:04.938Z,7.3234
2023-04-01T04:23:06.046Z,7.3134
2023-04-01T04:24:07.129Z,7.3115
2023-04-01T04:25:08.199Z,7.3497
2023-04-01T04:26:09.269Z,7.3641
2023-04-01T04:27:10.278Z,7.3503
2023-04-01T04:28:11.351Z,7.3369
2023-04-01T04:29:12.473Z,7.3613
2023-04-01T04:30:13.602Z,7.3829
2023-04-01T04:31:14.717Z,7.3922
2023-04-01T04:32:15.867Z,7.3905
2023-04-01T04:33:16.930Z,7.3722
2023-04-01T04:34:18.000Z,7.3431
2023-04-01T04:35:19.039Z,7.2843
2023-04-01T04:36:20.223Z,7.1722
2023-04-01T04:37:21.340Z,7.0470
2023-04-01T04:38:22.486Z,6.9551
2023-04-01T04:39:23.599Z,6.9161
2023-04-01T04:40:24.746Z,6.8721
2023-04-01T04:41:25.827Z,6.8042
2023-04-01T04:42:26.928Z,6.8124
2023-04-01T04:43:28.095Z,6.8107
2023-04-01T04:44:29.165Z,6.8259
2023-04-01T04:45:30.269Z,6.8450
2023-04-01T04:46:31.420Z,6.8538
2023-04-01T04:47:32.520Z,6.8345
2023-04-01T04:48:33.622Z,6.8339
2023-04-01T04:49:34.695Z,6.8251
2023-04-01T04:50:35.788Z,6.7895
2023-04-01T04:51:37.215Z,6.7499
2023-04-01T04:52:38.355Z,6.7532
2023-04-01T04:53:39.482Z,6.7411
2023-04-01T04:54:40.735Z,6.7362
2023-04-01T04:55:41.888Z,6.7207
2023-04-01T04:56:43.037Z,6.7076
2023-04-01T04:57:44.208Z,6.6938
2023-04-01T04:58:45.415Z,6.6859
2023-04-01T04:59:46.575Z,6.6547
2023-04-01T05:00:47.684Z,6.6208
2023-04-01T05:01:48.949Z,6.5770
2023-04-01T05:02:50.248Z,6.5621
2023-04-01T05:03:51.359Z,6.5259
2023-04-01T05:04:52.516Z,6.5043
2023-04-01T05:05:53.616Z,6.4748
2023-04-01T05:06:54.798Z,6.4715
2023-04-01T05:07:55.959Z,6.4846
2023-04-01T05:08:57.232Z,6.4867
2023-04-01T05:09:58.424Z,6.4875
2023-04-01T05:10:59.576Z,6.4925
2023-04-01T05:12:00.669Z,6.4896
2023-04-01T05:13:01.855Z,6.4614
2023-04-01T05:14:03.025Z,6.4549
2023-04-01T05:15:04.187Z,6.4550
2023-04-01T05:16:05.368Z,6.4499
2023-04-01T05:17:06.578Z,6.4407
2023-04-01T05:18:07.838Z,6.4143
2023-04-01T05:19:09.006Z,6.3801
2023-04-01T05:20:10.153Z,6.3680
2023-04-01T05:21:11.337Z,6.3607
2023-04-01T05:22:12.494Z,6.3710
2023-04-01T05:23:13.573Z,6.3671
2023-04-01T05:24:14.708Z,6.3877
2023-04-01T05:25:15.967Z,6.3829
2023-04-01T05:26:17.091Z,6.3839
2023-04-01T05:27:18.318Z,6.3892
2023-04-01T05:28:19.523Z,6.3846
2023-04-01T05:29:20.671Z,6.4029
2023-04-01T05:30:21.845Z,6.4247
2023-04-01T05:31:23.039Z,6.4605
2023-04-01T05:32:24.217Z,6.4544
2023-04-01T05:33:25.369Z,6.4419
2023-04-01T05:34:26.493Z,6.4720
2023-04-01T05:35:27.706Z,6.4756
2023-04-01T05:36:28.828Z,6.4742
2023-04-01T05:37:29.987Z,6.4533
2023-04-01T05:38:31.108Z,6.3829
2023-04-01T05:39:32.417Z,6.3742
2023-04-01T05:40:33.545Z,6.3805
2023-04-01T05:41:34.727Z,6.3597
2023-04-01T05:42:37.625Z,6.3636
2023-04-01T05:43:37.164Z,6.3999
2023-04-01T05:44:38.345Z,6.4126
2023-04-01T05:45:39.510Z,6.3905
2023-04-01T05:46:40.852Z,6.3935
2023-04-01T05:47:42.032Z,6.4101
2023-04-01T05:48:43.381Z,6.4401
2023-04-01T05:49:44.576Z,6.4367
2023-04-01T05:50:45.769Z,6.4583
2023-04-01T05:51:46.904Z,6.4793
2023-04-01T05:52:48.048Z,6.5243
2023-04-01T05:53:49.231Z,6.5660
2023-04-01T05:54:50.448Z,6.5730
2023-04-01T05:55:51.632Z,6.5863
2023-04-01T05:56:52.920Z,6.5875
2023-04-01T05:57:54.117Z,6.6183
2023-04-01T05:58:55.310Z,6.6478
2023-04-01T05:59:56.507Z,6.6679
2023-04-01T06:01:09.386Z,6.6963
2023-04-01T06:02:00.036Z,6.6655
2023-04-01T06:03:01.525Z,6.6648
2023-04-01T06:04:03.091Z,6.6726
2023-04-01T06:05:04.756Z,6.6504
2023-04-01T06:06:05.868Z,6.6387
2023-04-01T06:07:07.019Z,6.6432
2023-04-01T06:08:08.212Z,6.6703
2023-04-01T06:09:09.381Z,6.6445
2023-04-01T06:10:10.583Z,6.6469
2023-04-01T06:11:11.739Z,6.6533
2023-04-01T06:12:12.904Z,6.6776
2023-04-01T06:13:14.139Z,6.7355
2023-04-01T06:14:15.263Z,6.7956
2023-04-01T06:15:16.436Z,6.8520
2023-04-01T06:16:17.874Z,6.8899
2023-04-01T06:17:18.953Z,6.9500
2023-04-01T06:18:20.109Z,6.9463
2023-04-01T06:19:21.257Z,6.9598
2023-04-01T06:20:22.481Z,6.9813
2023-04-01T06:21:23.668Z,6.9859
2023-04-01T06:22:24.801Z,7.0161
2023-04-01T06:23:25.979Z,7.0277
2023-04-01T06:24:27.076Z,7.0509
2023-04-01T06:25:28.258Z,7.0829
2023-04-01T06:26:29.441Z,7.0325
2023-04-01T06:27:30.553Z,7.0429
2023-04-01T06:28:31.678Z,7.0656
2023-04-01T06:29:32.882Z,7.0850
2023-04-01T06:30:34.033Z,7.0668
2023-04-01T06:31:35.211Z,7.1129
2023-04-01T06:32:36.382Z,7.1058
2023-04-01T06:33:37.470Z,7.1153
2023-04-01T06:34:38.680Z,7.1083
2023-04-01T06:35:39.875Z,7.1228
2023-04-01T06:36:41.129Z,7.1630
2023-04-01T06:37:42.409Z,7.2407
2023-04-01T06:38:43.571Z,7.2920
2023-04-01T06:39:44.620Z,7.3378
2023-04-01T06:40:45.770Z,7.3894
2023-04-01T06:41:46.962Z,7.4599
2023-04-01T06:42:48.117Z,7.4784
2023-04-01T06:43:49.398Z,7.5226
2023-04-01T06:44:50.519Z,7.5022
2023-04-01T06:45:51.706Z,7.5242
2023-04-01T06:46:52.811Z,7.4912
2023-04-01T06:47:54.041Z,7.4812
2023-04-01T06:48:55.171Z,7.4836
2023-04-01T06:49:56.334Z,7.4552
2023-04-01T06:50:57.427Z,7.4846
2023-04-01T06:51:58.560Z,7.5320
2023-04-01T06:52:59.690Z,7.5602
2023-04-01T06:54:00.799Z,7.6253
2023-04-01T06:55:01.953Z,7.6597
2023-04-01T06:56:03.070Z,7.7016
2023-04-01T06:57:04.253Z,7.7187
2023-04-01T06:58:05.406Z,7.7343
2023-04-01T06:59:06.562Z,7.7468
2023-04-01T07:00:07.786Z,7.7663
2023-04-01T07:01:08.934Z,7.8109
2023-04-01T07:02:10.102Z,7.7890
2023-04-01T07:03:11.285Z,7.8309
2023-04-01T07:04:12.452Z,7.8204
2023-04-01T07:05:13.714Z,7.8005
2023-04-01T07:06:14.910Z,7.8028
2023-04-01T07:07:16.060Z,7.8132
2023-04-01T07:08:17.274Z,7.8082
2023-04-01T07:09:18.378Z,7.8222
2023-04-01T07:10:19.588Z,7.8231
2023-04-01T07:11:20.794Z,7.8011
2023-04-01T07:12:22.025Z,7.7839
2023-04-01T07:13:23.324Z,7.8025
2023-04-01T07:14:24.421Z,7.8164
2023-04-01T07:15:25.649Z,7.8592
2023-04-01T07:16:26.814Z,7.8561
2023-04-01T07:17:28.021Z,7.8131
2023-04-01T07:18:29.115Z,7.7821
2023-04-01T07:19:30.249Z,7.7396
2023-04-01T07:20:31.430Z,7.6943
2023-04-01T07:21:33.694Z,7.6356
2023-04-01T07:22:34.908Z,7.5475
2023-04-01T07:23:36.074Z,7.5107
2023-04-01T07:24:37.224Z,7.4568
2023-04-01T07:25:38.396Z,7.4809
2023-04-01T07:26:39.566Z,7.4501
2023-04-01T07:27:40.716Z,7.3773
2023-04-01T07:28:42.918Z,7.3076
2023-04-01T07:29:44.121Z,7.2924
2023-04-01T07:30:45.433Z,7.3001
2023-04-01T07:31:46.586Z,7.2710
2023-04-01T07:32:47.813Z,7.3006
2023-04-01T07:33:48.923Z,7.2119
2023-04-01T07:34:50.080Z,7.1866
2023-04-01T07:35:51.254Z,7.1608
2023-04-01T07:36:52.436Z,7.1760
2023-04-01T07:37:53.589Z,7.1490
2023-04-01T07:38:54.709Z,7.1470
2023-04-01T07:39:55.952Z,7.1811
2023-04-01T07:40:57.101Z,7.1553
2023-04-01T07:41:58.232Z,7.1278
2023-04-01T07:42:59.349Z,7.1480
2023-04-01T07:44:00.527Z,7.1203
2023-04-01T07:45:01.686Z,7.1095
2023-04-01T07:46:02.889Z,7.1334
2023-04-01T07:47:04.070Z,7.1552
2023-04-01T07:48:05.193Z,7.1468
2023-04-01T07:49:06.292Z,7.1554
2023-04-01T07:50:07.611Z,7.1486
2023-04-01T07:51:08.779Z,7.1167
2023-04-01T07:52:09.988Z,7.0818
2023-04-01T07:53:11.134Z,7.0779
2023-04-01T07:54:12.282Z,7.1264
2023-04-01T07:55:13.452Z,7.0989
2023-04-01T07:56:14.613Z,7.0451
2023-04-01T07:57:15.846Z,7.0430
2023-04-01T07:58:16.933Z,7.0110
2023-04-01T07:59:18.081Z,7.0116
2023-04-01T08:00:19.265Z,6.9663
2023-04-01T08:01:20.393Z,6.9800
2023-04-01T08:02:21.614Z,6.9760
2023-04-01T08:03:22.840Z,6.9540
2023-04-01T08:04:24.038Z,6.9287
2023-04-01T08:05:25.272Z,6.8931
2023-04-01T08:06:26.520Z,6.8527
2023-04-01T08:07:27.726Z,6.8359
2023-04-01T08:08:28.838Z,6.7859
2023-04-01T08:09:30.008Z,6.8003
2023-04-01T08:10:31.185Z,6.8461
2023-04-01T08:11:32.359Z,6.7928
2023-04-01T08:12:33.518Z,6.7916
2023-04-01T08:13:34.634Z,6.7868
2023-04-01T08:14:35.755Z,6.8064
2023-04-01T08:15:36.908Z,6.8124
2023-04-01T08:16:38.150Z,6.8092
2023-04-01T08:17:39.338Z,6.8320
2023-04-01T08:18:40.436Z,6.8722
2023-04-01T08:19:41.585Z,6.8645
2023-04-01T08:20:42.706Z,6.8479
2023-04-01T08:21:43.885Z,6.8537
2023-04-01T08:22:45.081Z,6.8394
2023-04-01T08:23:46.229Z,6.8500
2023-04-01T08:24:48.286Z,6.8891
2023-04-01T08:25:49.852Z,6.8968
2023-04-01T08:26:51.080Z,6.8879
2023-04-01T08:27:52.331Z,6.8916
2023-04-01T08:28:53.476Z,6.8955
2023-04-01T08:29:54.642Z,6.9182
2023-04-01T08:30:55.842Z,6.8949
2023-04-01T08:31:57.042Z,6.9103
2023-04-01T08:32:58.232Z,6.9411
2023-04-01T08:33:59.420Z,6.9666
2023-04-01T08:35:00.573Z,6.9487
2023-04-01T08:36:01.842Z,6.9579
2023-04-01T08:37:03.024Z,6.9280
2023-04-01T08:38:04.198Z,6.9051
2023-04-01T08:39:05.302Z,6.8993
2023-04-01T08:40:06.410Z,6.9090
2023-04-01T08:41:07.547Z,6.9007
2023-04-01T08:42:08.659Z,6.8734
2023-04-01T08:43:09.821Z,6.8835
2023-04-01T08:44:10.979Z,6.8747
2023-04-01T08:45:14.240Z,6.8681
2023-04-01T08:46:13.642Z,6.8840
2023-04-01T08:47:14.831Z,6.8798
2023-04-01T08:48:16.008Z,6.8696
2023-04-01T08:49:17.272Z,6.8386
2023-04-01T08:50:18.543Z,6.8710
2023-04-01T08:51:19.731Z,6.8757
2023-04-01T08:52:21.070Z,6.8839
2023-04-01T08:53:22.242Z,6.9119
2023-04-01T08:54:23.469Z,6.8852
2023-04-01T08:55:24.599Z,6.9052
2023-04-01T08:56:25.764Z,6.9019
2023-04-01T08:57:27.095Z,6.8702
2023-04-01T08:58:28.321Z,6.9007
2023-04-01T08:59:29.427Z,6.8897
2023-04-01T09:00:30.631Z,6.8908
2023-04-01T09:01:31.794Z,6.8887
2023-04-01T09:02:33.100Z,6.8709
2023-04-01T09:03:34.557Z,6.8501
2023-04-01T09:04:35.888Z,6.8457
2023-04-01T09:05:37.170Z,6.8658
2023-04-01T09:06:38.354Z,6.8563
2023-04-01T09:07:39.497Z,6.8674
2023-04-01T09:08:40.702Z,6.8706
2023-04-01T09:09:42.296Z,6.8538
2023-04-01T09:10:43.435Z,6.8701
2023-04-01T09:11:44.754Z,6.8642
2023-04-01T09:12:45.903Z,6.8757
2023-04-01T09:13:47.210Z,6.8766
2023-04-01T09:14:48.383Z,6.8701
2023-04-01T09:15:49.575Z,6.9261
2023-04-01T09:16:50.764Z,6.9543
2023-04-01T09:17:51.972Z,6.9831
2023-04-01T09:18:53.195Z,7.0200
2023-04-01T09:19:54.350Z,7.0400
2023-04-01T09:20:55.649Z,7.0217
2023-04-01T09:21:57.706Z,6.9957
2023-04-01T09:22:58.915Z,7.0113
2023-04-01T09:24:00.135Z,7.0292
2023-04-01T09:25:01.332Z,7.0283
2023-04-01T09:26:02.606Z,7.0409
2023-04-01T09:27:03.777Z,7.0620
2023-04-01T09:28:04.981Z,7.0806
2023-04-01T09:29:06.311Z,7.0862
2023-04-01T09:30:07.476Z,7.1491
2023-04-01T09:31:08.723Z,7.1107
2023-04-01T09:32:09.917Z,7.1225
2023-04-01T09:33:11.126Z,7.1446
2023-04-01T09:34:12.315Z,7.1134
2023-04-01T09:35:13.488Z,7.1346
2023-04-01T09:36:14.834Z,7.1898
2023-04-01T09:37:16.024Z,7.2385
2023-04-01T09:38:17.167Z,7.2258
2023-04-01T09:39:18.411Z,7.2810
2023-04-01T09:40:19.737Z,7.2769
2023-04-01T09:41:21.030Z,7.3191
2023-04-01T09:42:22.273Z,7.3686
2023-04-01T09:43:23.410Z,7.3364
2023-04-01T09:44:24.599Z,7.3485
2023-04-01T09:45:25.793Z,7.4111
2023-04-01T09:46:27.015Z,7.4642
2023-04-01T09:47:28.454Z,7.4704
2023-04-01T09:48:29.661Z,7.4867
2023-04-01T09:49:30.882Z,7.5985
2023-04-01T09:50:32.049Z,7.6006
2023-04-01T09:51:33.245Z,7.6479
2023-04-01T09:52:34.453Z,7.7206
2023-04-01T09:53:35.655Z,7.7423
2023-04-01T09:54:36.857Z,7.7879
2023-04-01T09:55:38.059Z,7.8387
2023-04-01T09:56:39.220Z,7.8957
2023-04-01T09:57:40.429Z,7.9659
2023-04-01T09:58:44.004Z,8.0373
2023-04-01T09:59:43.336Z,8.0205
2023-04-01T10:00:44.567Z,8.0443
2023-04-01T10:01:45.851Z,8.0663
2023-04-01T10:02:47.030Z,8.1009
2023-04-01T10:03:48.253Z,8.1167
2023-04-01T10:04:49.516Z,8.1979
2023-04-01T10:05:50.824Z,8.1713
2023-04-01T10:06:52.457Z,8.2014
2023-04-01T10:07:53.666Z,8.1979
2023-04-01T10:08:54.884Z,8.2681
2023-04-01T10:09:56.100Z,8.2375
2023-04-01T10:10:57.310Z,8.1990
2023-04-01T10:11:58.648Z,8.2014
2023-04-01T10:12:59.860Z,8.1458
2023-04-01T10:14:01.171Z,8.1445
2023-04-01T10:15:02.360Z,8.1386
2023-04-01T10:16:03.583Z,8.0664
2023-04-01T10:17:04.801Z,8.0458
2023-04-01T10:18:06.164Z,8.0163
2023-04-01T10:19:07.468Z,8.0224
2023-04-01T10:20:08.793Z,8.0260
2023-04-01T10:21:09.964Z,8.0153
2023-04-01T10:22:11.199Z,8.0686
2023-04-01T10:23:12.748Z,8.0606
2023-04-01T10:24:13.958Z,8.1479
2023-04-01T10:25:15.196Z,8.2057
2023-04-01T10:26:16.416Z,8.2914
2023-04-01T10:27:17.655Z,8.3446
2023-04-01T10:28:18.866Z,8.2986
2023-04-01T10:29:20.116Z,8.2278
2023-04-01T10:30:21.245Z,8.2424
2023-04-01T10:31:22.490Z,8.2946
2023-04-01T10:32:23.694Z,8.3159
2023-04-01T10:33:24.846Z,8.3663
2023-04-01T10:34:26.075Z,8.2826
2023-04-01T10:35:27.282Z,8.2556
2023-04-01T10:36:28.546Z,8.2731
2023-04-01T10:37:29.748Z,8.2861
2023-04-01T10:38:30.938Z,8.2942
2023-04-01T10:39:32.194Z,8.3297
2023-04-01T10:40:33.455Z,8.3103
2023-04-01T10:41:34.670Z,8.3114
2023-04-01T10:42:35.914Z,8.3265
2023-04-01T10:43:37.059Z,8.2998
2023-04-01T10:44:38.341Z,8.2914
2023-04-01T10:45:39.571Z,8.3353
2023-04-01T10:46:40.848Z,8.3793
2023-04-01T10:47:42.081Z,8.4072
2023-04-01T10:48:43.307Z,8.4105
2023-04-01T10:49:44.593Z,8.4208
2023-04-01T10:50:45.880Z,8.4193
2023-04-01T10:51:47.105Z,8.3519
2023-04-01T10:52:48.296Z,8.4599
2023-04-01T10:53:49.501Z,8.4926
2023-04-01T10:54:50.683Z,8.5197
2023-04-01T10:55:51.901Z,8.5891
2023-04-01T10:56:53.117Z,8.5721
2023-04-01T10:57:54.419Z,8.6104
2023-04-01T10:58:55.571Z,8.7316
2023-04-01T10:59:56.850Z,8.7935
2023-04-01T11:00:58.087Z,8.7701
2023-04-01T11:02:10.184Z,8.8213
2023-04-01T11:03:01.756Z,8.8320
2023-04-01T11:04:03.147Z,8.7801
2023-04-01T11:05:04.385Z,8.7900
2023-04-01T11:06:05.593Z,8.7716
2023-04-01T11:07:06.836Z,8.7643
2023-04-01T11:08:08.060Z,8.7736
2023-04-01T11:09:09.242Z,8.7604
2023-04-01T11:10:10.465Z,8.8134
2023-04-01T11:11:11.644Z,8.7439
2023-04-01T11:12:12.800Z,8.7184
2023-04-01T11:13:14.044Z,8.7832
2023-04-01T11:14:15.254Z,8.8955
2023-04-01T11:15:16.415Z,8.8790
2023-04-01T11:16:18.512Z,8.9058
2023-04-01T11:17:18.025Z,8.9048
2023-04-01T11:18:19.210Z,8.9446
2023-04-01T11:19:20.386Z,8.9301
2023-04-01T11:20:21.529Z,8.9777
2023-04-01T11:21:23.862Z,8.9193
2023-04-01T11:22:23.619Z,8.8593
2023-04-01T11:23:24.800Z,8.8501
2023-04-01T11:24:25.985Z,8.8627
2023-04-01T11:25:27.169Z,8.8725
2023-04-01T11:26:28.361Z,8.8819
2023-04-01T11:27:29.615Z,8.8731
2023-04-01T11:28:31.566Z,8.8118
2023-04-01T11:29:32.750Z,8.7306
2023-04-01T11:30:33.979Z,8.6929
2023-04-01T11:31:35.245Z,8.5902
2023-04-01T11:32:36.563Z,8.5339
2023-04-01T11:33:37.767Z,8.4989
2023-04-01T11:34:38.921Z,8.5261
2023-04-01T11:35:40.137Z,8.5424
2023-04-01T11:36:41.377Z,8.5292
2023-04-01T11:37:42.525Z,8.5120
2023-04-01T11:38:43.697Z,8.5155
2023-04-01T11:39:45.011Z,8.5290
2023-04-01T11:40:46.202Z,8.5111
2023-04-01T11:41:47.409Z,8.5202
2023-04-01T11:42:48.718Z,8.5946
2023-04-01T11:43:49.933Z,8.6089
2023-04-01T11:44:51.084Z,8.6023
2023-04-01T11:45:52.314Z,8.6082
2023-04-01T11:46:53.467Z,8.5878
2023-04-01T11:47:54.914Z,8.5652
2023-04-01T11:48:56.342Z,8.5709
2023-04-01T11:49:57.532Z,8.5591
2023-04-01T11:50:58.667Z,8.5317
2023-04-01T11:51:59.905Z,8.5508
2023-04-01T11:53:01.168Z,8.4972
2023-04-01T11:54:02.353Z,8.5823
2023-04-01T11:55:03.723Z,8.6434
2023-04-01T11:56:04.944Z,8.6396
2023-04-01T11:57:06.182Z,8.7399
2023-04-01T11:58:07.330Z,8.7974
2023-04-01T11:59:08.528Z,8.8261
2023-04-01T12:00:09.712Z,8.8368
2023-04-01T12:01:10.888Z,8.9207
2023-04-01T12:02:12.199Z,8.9238
2023-04-01T12:03:13.499Z,8.9729
2023-04-01T12:04:14.793Z,8.9747
2023-04-01T12:05:16.035Z,8.9945
2023-04-01T12:06:17.233Z,9.0091
2023-04-01T12:07:18.496Z,9.0572
2023-04-01T12:08:19.782Z,9.1814
2023-04-01T12:09:21.098Z,9.2360
2023-04-01T12:10:22.278Z,9.3466
2023-04-01T12:11:23.454Z,9.3476
2023-04-01T12:12:24.656Z,9.3593
2023-04-01T12:13:26.121Z,9.4310
2023-04-01T12:14:27.377Z,9.5217
2023-04-01T12:15:28.525Z,9.6433
2023-04-01T12:16:29.716Z,9.6676
2023-04-01T12:17:30.917Z,9.5369
2023-04-01T12:18:32.104Z,9.4446
2023-04-01T12:19:33.285Z,9.3929
2023-04-01T12:20:34.483Z,9.2957
2023-04-01T12:21:35.646Z,9.4401
2023-04-01T12:22:36.826Z,9.4375
2023-04-01T12:23:38.021Z,9.4098
2023-04-01T12:24:39.232Z,9.3994
2023-04-01T12:25:40.391Z,9.3962
2023-04-01T12:26:41.645Z,9.3652
2023-04-01T12:27:42.830Z,9.2547
2023-04-01T12:28:44.029Z,9.0840
2023-04-01T12:29:45.197Z,8.8917
2023-04-01T12:30:46.372Z,8.6533
2023-04-01T12:31:47.600Z,8.5881
2023-04-01T12:32:48.794Z,8.6217
2023-04-01T12:33:50.000Z,8.7361
2023-04-01T12:34:51.202Z,8.8687
2023-04-01T12:35:52.531Z,8.9799
2023-04-01T12:36:53.696Z,9.0666
2023-04-01T12:37:54.874Z,9.1768
2023-04-01T12:38:56.132Z,9.2428
2023-04-01T12:39:57.530Z,9.2861
2023-04-01T12:40:58.717Z,9.4202
2023-04-01T12:41:59.890Z,9.3763
2023-04-01T12:43:01.108Z,9.6341